sensor_id;sensor_type;location;lat;lon;timestamp;P1;durP1;ratioP1;P2;durP2;ratioP2
76731;SDS011;65656;51.130;13.658;2023-04-10T00:02:23;40.67;;;33.40;;
76731;SDS011;65656;51.130;13.658;2023-04-10T00:06:26;40.05;;;34.13;;
76731;SDS011;65656;51.130;13.658;2023-04-10T00:10:27;39.28;;;32.40;;
76731;SDS011;65656;51.130;13.658;2023-04-10T00:14:29;43.22;;;38.70;;
76731;SDS011;65656;51.130;13.658;2023-04-10T00:18:31;38.55;;;31.25;;
76731;SDS011;65656;51.130;13.658;2023-04-10T00:22:33;35.92;;;28.23;;
76731;SDS011;65656;51.130;13.658;2023-04-10T00:26:35;41.75;;;32.78;;
76731;SDS011;65656;51.130;13.658;2023-04-10T00:30:37;40.33;;;33.90;;
76731;SDS011;65656;51.130;13.658;2023-04-10T00:34:38;40.58;;;33.03;;
76731;SDS011;65656;51.130;13.658;2023-04-10T00:38:41;38.75;;;34.50;;
76731;SDS011;65656;51.130;13.658;2023-04-10T00:42:42;80.18;;;73.88;;
76731;SDS011;65656;51.130;13.658;2023-04-10T00:46:44;45.70;;;38.50;;
76731;SDS011;65656;51.130;13.658;2023-04-10T00:50:45;44.10;;;37.60;;
76731;SDS011;65656;51.130;13.658;2023-04-10T00:54:48;46.80;;;38.85;;
76731;SDS011;65656;51.130;13.658;2023-04-10T00:58:50;47.15;;;39.17;;
76731;SDS011;65656;51.130;13.658;2023-04-10T01:02:52;42.70;;;37.35;;
76731;SDS011;65656;51.130;13.658;2023-04-10T01:06:57;47.10;;;42.05;;
76731;SDS011;65656;51.130;13.658;2023-04-10T01:11:03;42.83;;;38.22;;
76731;SDS011;65656;51.130;13.658;2023-04-10T01:15:07;43.83;;;32.33;;
76731;SDS011;65656;51.130;13.658;2023-04-10T01:19:14;50.10;;;37.45;;
76731;SDS011;65656;51.130;13.658;2023-04-10T01:23:38;50.63;;;39.83;;
76731;SDS011;65656;51.130;13.658;2023-04-10T01:27:53;47.70;;;35.72;;
76731;SDS011;65656;51.130;13.658;2023-04-10T01:36:11;49.65;;;38.38;;
76731;SDS011;65656;51.130;13.658;2023-04-10T01:40:18;48.58;;;37.15;;
76731;SDS011;65656;51.130;13.658;2023-04-10T01:44:22;45.72;;;37.28;;
76731;SDS011;65656;51.130;13.658;2023-04-10T01:48:26;54.45;;;38.38;;
76731;SDS011;65656;51.130;13.658;2023-04-10T01:52:29;51.53;;;40.15;;
76731;SDS011;65656;51.130;13.658;2023-04-10T01:56:31;51.42;;;41.63;;
76731;SDS011;65656;51.130;13.658;2023-04-10T02:00:36;47.97;;;37.08;;
76731;SDS011;65656;51.130;13.658;2023-04-10T02:04:39;52.13;;;39.85;;
76731;SDS011;65656;51.130;13.658;2023-04-10T02:13:44;43.83;;;38.90;;
76731;SDS011;65656;51.130;13.658;2023-04-10T02:17:48;52.00;;;46.50;;
76731;SDS011;65656;51.130;13.658;2023-04-10T02:21:53;50.45;;;38.63;;
76731;SDS011;65656;51.130;13.658;2023-04-10T02:25:55;46.05;;;35.08;;
76731;SDS011;65656;51.130;13.658;2023-04-10T02:29:57;48.40;;;43.25;;
76731;SDS011;65656;51.130;13.658;2023-04-10T02:33:58;43.78;;;38.33;;
76731;SDS011;65656;51.130;13.658;2023-04-10T02:38:01;52.55;;;47.45;;
76731;SDS011;65656;51.130;13.658;2023-04-10T02:42:03;41.83;;;37.33;;
76731;SDS011;65656;51.130;13.658;2023-04-10T02:46:04;42.08;;;32.53;;
76731;SDS011;65656;51.130;13.658;2023-04-10T02:50:06;42.03;;;36.30;;
76731;SDS011;65656;51.130;13.658;2023-04-10T02:54:10;44.55;;;36.08;;
76731;SDS011;65656;51.130;13.658;2023-04-10T02:58:11;41.78;;;32.05;;
76731;SDS011;65656;51.130;13.658;2023-04-10T03:02:15;37.40;;;29.58;;
76731;SDS011;65656;51.130;13.658;2023-04-10T03:06:17;35.78;;;29.38;;
76731;SDS011;65656;51.130;13.658;2023-04-10T03:10:19;50.55;;;45.78;;
76731;SDS011;65656;51.130;13.658;2023-04-10T03:14:21;41.83;;;30.55;;
76731;SDS011;65656;51.130;13.658;2023-04-10T03:18:22;40.80;;;31.45;;
76731;SDS011;65656;51.130;13.658;2023-04-10T03:22:24;52.15;;;47.17;;
76731;SDS011;65656;51.130;13.658;2023-04-10T03:26:27;39.88;;;30.85;;
76731;SDS011;65656;51.130;13.658;2023-04-10T03:30:28;40.72;;;36.30;;
76731;SDS011;65656;51.130;13.658;2023-04-10T03:34:29;43.22;;;34.58;;
76731;SDS011;65656;51.130;13.658;2023-04-10T03:38:31;39.03;;;32.08;;
76731;SDS011;65656;51.130;13.658;2023-04-10T03:42:34;40.47;;;32.97;;
76731;SDS011;65656;51.130;13.658;2023-04-10T03:46:35;41.08;;;32.10;;
76731;SDS011;65656;51.130;13.658;2023-04-10T03:50:37;39.92;;;33.80;;
76731;SDS011;65656;51.130;13.658;2023-04-10T03:54:39;38.90;;;32.20;;
76731;SDS011;65656;51.130;13.658;2023-04-10T03:58:41;42.50;;;30.83;;
76731;SDS011;65656;51.130;13.658;2023-04-10T04:02:43;43.40;;;33.38;;
76731;SDS011;65656;51.130;13.658;2023-04-10T04:06:45;36.15;;;28.30;;
76731;SDS011;65656;51.130;13.658;2023-04-10T04:10:46;36.42;;;29.80;;
76731;SDS011;65656;51.130;13.658;2023-04-10T04:14:49;39.20;;;29.85;;
76731;SDS011;65656;51.130;13.658;2023-04-10T04:18:51;37.55;;;29.75;;
76731;SDS011;65656;51.130;13.658;2023-04-10T04:22:52;37.63;;;31.20;;
76731;SDS011;65656;51.130;13.658;2023-04-10T04:26:53;37.15;;;28.15;;
76731;SDS011;65656;51.130;13.658;2023-04-10T04:30:56;32.70;;;29.20;;
76731;SDS011;65656;51.130;13.658;2023-04-10T04:34:58;36.35;;;31.98;;
76731;SDS011;65656;51.130;13.658;2023-04-10T04:38:59;37.90;;;30.77;;
76731;SDS011;65656;51.130;13.658;2023-04-10T04:43:00;34.75;;;29.65;;
76731;SDS011;65656;51.130;13.658;2023-04-10T04:47:03;31.40;;;25.17;;
76731;SDS011;65656;51.130;13.658;2023-04-10T04:51:05;36.72;;;29.67;;
76731;SDS011;65656;51.130;13.658;2023-04-10T04:55:07;37.33;;;33.38;;
76731;SDS011;65656;51.130;13.658;2023-04-10T04:59:09;36.15;;;25.80;;
76731;SDS011;65656;51.130;13.658;2023-04-10T05:03:11;33.05;;;29.17;;
76731;SDS011;65656;51.130;13.658;2023-04-10T05:07:13;32.63;;;26.38;;
76731;SDS011;65656;51.130;13.658;2023-04-10T05:11:14;36.40;;;28.05;;
76731;SDS011;65656;51.130;13.658;2023-04-10T05:15:16;31.33;;;24.50;;
76731;SDS011;65656;51.130;13.658;2023-04-10T05:19:19;33.90;;;29.15;;
76731;SDS011;65656;51.130;13.658;2023-04-10T05:23:21;29.38;;;22.52;;
76731;SDS011;65656;51.130;13.658;2023-04-10T05:27:22;35.65;;;29.70;;
76731;SDS011;65656;51.130;13.658;2023-04-10T05:31:24;29.67;;;26.58;;
76731;SDS011;65656;51.130;13.658;2023-04-10T05:35:27;34.33;;;25.90;;
76731;SDS011;65656;51.130;13.658;2023-04-10T05:39:28;32.22;;;26.77;;
76731;SDS011;65656;51.130;13.658;2023-04-10T05:43:32;30.48;;;25.80;;
76731;SDS011;65656;51.130;13.658;2023-04-10T05:47:34;32.22;;;27.77;;
76731;SDS011;65656;51.130;13.658;2023-04-10T05:51:36;30.52;;;27.00;;
76731;SDS011;65656;51.130;13.658;2023-04-10T05:55:38;36.97;;;27.50;;
76731;SDS011;65656;51.130;13.658;2023-04-10T05:59:39;32.92;;;29.42;;
76731;SDS011;65656;51.130;13.658;2023-04-10T06:03:41;30.52;;;27.30;;
76731;SDS011;65656;51.130;13.658;2023-04-10T06:07:44;30.55;;;21.55;;
76731;SDS011;65656;51.130;13.658;2023-04-10T06:11:45;31.45;;;25.45;;
76731;SDS011;65656;51.130;13.658;2023-04-10T06:15:47;28.48;;;22.80;;
76731;SDS011;65656;51.130;13.658;2023-04-10T06:19:48;28.77;;;21.65;;
76731;SDS011;65656;51.130;13.658;2023-04-10T06:23:51;33.78;;;24.95;;
76731;SDS011;65656;51.130;13.658;2023-04-10T06:27:53;30.17;;;24.33;;
76731;SDS011;65656;51.130;13.658;2023-04-10T06:31:54;30.90;;;26.88;;
76731;SDS011;65656;51.130;13.658;2023-04-10T06:35:57;27.30;;;22.27;;
76731;SDS011;65656;51.130;13.658;2023-04-10T06:40:02;30.92;;;24.90;;
76731;SDS011;65656;51.130;13.658;2023-04-10T06:44:04;30.33;;;24.92;;
76731;SDS011;65656;51.130;13.658;2023-04-10T06:48:06;31.40;;;26.60;;
76731;SDS011;65656;51.130;13.658;2023-04-10T06:52:07;41.75;;;38.00;;
76731;SDS011;65656;51.130;13.658;2023-04-10T06:56:10;39.47;;;35.75;;
76731;SDS011;65656;51.130;13.658;2023-04-10T07:00:12;26.52;;;22.98;;
76731;SDS011;65656;51.130;13.658;2023-04-10T07:04:14;27.35;;;20.92;;
76731;SDS011;65656;51.130;13.658;2023-04-10T07:08:15;28.23;;;23.58;;
76731;SDS011;65656;51.130;13.658;2023-04-10T07:12:18;29.05;;;25.15;;
76731;SDS011;65656;51.130;13.658;2023-04-10T07:16:20;41.75;;;37.88;;
76731;SDS011;65656;51.130;13.658;2023-04-10T07:20:21;28.10;;;25.00;;
76731;SDS011;65656;51.130;13.658;2023-04-10T07:24:23;32.85;;;23.88;;
76731;SDS011;65656;51.130;13.658;2023-04-10T07:28:25;28.35;;;21.52;;
76731;SDS011;65656;51.130;13.658;2023-04-10T07:32:27;28.80;;;23.00;;
76731;SDS011;65656;51.130;13.658;2023-04-10T07:36:29;27.48;;;22.58;;
76731;SDS011;65656;51.130;13.658;2023-04-10T07:40:30;23.10;;;20.15;;
76731;SDS011;65656;51.130;13.658;2023-04-10T07:44:33;25.73;;;22.25;;
76731;SDS011;65656;51.130;13.658;2023-04-10T07:48:34;27.67;;;24.70;;
76731;SDS011;65656;51.130;13.658;2023-04-10T07:52:36;24.08;;;20.25;;
76731;SDS011;65656;51.130;13.658;2023-04-10T07:56:37;24.85;;;22.08;;
76731;SDS011;65656;51.130;13.658;2023-04-10T08:00:40;24.05;;;20.27;;
76731;SDS011;65656;51.130;13.658;2023-04-10T08:04:41;25.15;;;20.98;;
76731;SDS011;65656;51.130;13.658;2023-04-10T08:08:43;23.65;;;20.30;;
76731;SDS011;65656;51.130;13.658;2023-04-10T08:12:44;24.15;;;21.63;;
76731;SDS011;65656;51.130;13.658;2023-04-10T08:16:47;25.27;;;22.75;;
76731;SDS011;65656;51.130;13.658;2023-04-10T08:20:49;22.92;;;17.85;;
76731;SDS011;65656;51.130;13.658;2023-04-10T08:24:50;21.70;;;16.60;;
76731;SDS011;65656;51.130;13.658;2023-04-10T08:28:52;33.17;;;30.40;;
76731;SDS011;65656;51.130;13.658;2023-04-10T08:32:57;19.15;;;16.85;;
76731;SDS011;65656;51.130;13.658;2023-04-10T08:36:59;19.65;;;17.35;;
76731;SDS011;65656;51.130;13.658;2023-04-10T08:41:00;15.68;;;13.63;;
76731;SDS011;65656;51.130;13.658;2023-04-10T08:45:02;17.73;;;14.35;;
76731;SDS011;65656;51.130;13.658;2023-04-10T08:49:05;18.20;;;13.40;;
76731;SDS011;65656;51.130;13.658;2023-04-10T08:57:11;19.60;;;14.75;;
76731;SDS011;65656;51.130;13.658;2023-04-10T09:01:15;20.05;;;17.48;;
76731;SDS011;65656;51.130;13.658;2023-04-10T09:05:21;28.35;;;25.77;;
76731;SDS011;65656;51.130;13.658;2023-04-10T09:09:24;20.33;;;15.32;;
76731;SDS011;65656;51.130;13.658;2023-04-10T09:13:35;22.90;;;20.60;;
76731;SDS011;65656;51.130;13.658;2023-04-10T09:17:46;28.52;;;26.02;;
76731;SDS011;65656;51.130;13.658;2023-04-10T09:25:58;18.73;;;14.30;;
76731;SDS011;65656;51.130;13.658;2023-04-10T09:30:00;15.32;;;13.73;;
76731;SDS011;65656;51.130;13.658;2023-04-10T09:34:06;14.38;;;10.90;;
76731;SDS011;65656;51.130;13.658;2023-04-10T09:38:13;15.75;;;13.48;;
76731;SDS011;65656;51.130;13.658;2023-04-10T09:42:15;13.68;;;10.15;;
76731;SDS011;65656;51.130;13.658;2023-04-10T09:46:30;15.27;;;11.85;;
76731;SDS011;65656;51.130;13.658;2023-04-10T09:50:34;15.38;;;10.93;;
76731;SDS011;65656;51.130;13.658;2023-04-10T09:54:41;12.20;;;9.48;;
76731;SDS011;65656;51.130;13.658;2023-04-10T09:58:42;12.38;;;9.18;;
76731;SDS011;65656;51.130;13.658;2023-04-10T10:02:44;11.40;;;9.50;;
76731;SDS011;65656;51.130;13.658;2023-04-10T10:06:46;13.27;;;11.48;;
76731;SDS011;65656;51.130;13.658;2023-04-10T10:10:49;14.25;;;11.40;;
76731;SDS011;65656;51.130;13.658;2023-04-10T10:18:58;14.55;;;11.85;;
76731;SDS011;65656;51.130;13.658;2023-04-10T10:23:05;11.65;;;10.50;;
76731;SDS011;65656;51.130;13.658;2023-04-10T10:27:08;13.32;;;12.02;;
76731;SDS011;65656;51.130;13.658;2023-04-10T10:31:10;12.50;;;11.23;;
76731;SDS011;65656;51.130;13.658;2023-04-10T10:35:12;11.70;;;10.57;;
76731;SDS011;65656;51.130;13.658;2023-04-10T10:39:17;12.68;;;11.38;;
76731;SDS011;65656;51.130;13.658;2023-04-10T10:43:31;13.63;;;12.40;;
76731;SDS011;65656;51.130;13.658;2023-04-10T10:47:39;12.32;;;9.43;;
76731;SDS011;65656;51.130;13.658;2023-04-10T10:51:42;12.75;;;10.70;;
76731;SDS011;65656;51.130;13.658;2023-04-10T10:55:45;12.98;;;11.23;;
76731;SDS011;65656;51.130;13.658;2023-04-10T10:59:54;12.73;;;11.13;;
76731;SDS011;65656;51.130;13.658;2023-04-10T11:03:55;13.93;;;10.85;;
76731;SDS011;65656;51.130;13.658;2023-04-10T11:08:06;14.10;;;12.45;;
76731;SDS011;65656;51.130;13.658;2023-04-10T11:12:08;12.43;;;10.65;;
76731;SDS011;65656;51.130;13.658;2023-04-10T11:16:10;14.27;;;12.48;;
76731;SDS011;65656;51.130;13.658;2023-04-10T11:20:12;13.98;;;12.57;;
76731;SDS011;65656;51.130;13.658;2023-04-10T11:24:13;14.82;;;12.20;;
76731;SDS011;65656;51.130;13.658;2023-04-10T11:28:34;14.32;;;12.63;;
76731;SDS011;65656;51.130;13.658;2023-04-10T11:32:40;20.08;;;18.48;;
76731;SDS011;65656;51.130;13.658;2023-04-10T11:36:43;12.70;;;11.40;;
76731;SDS011;65656;51.130;13.658;2023-04-10T11:40:54;20.83;;;19.20;;
76731;SDS011;65656;51.130;13.658;2023-04-10T11:49:28;10.60;;;9.50;;
76731;SDS011;65656;51.130;13.658;2023-04-10T11:57:33;12.38;;;10.40;;
76731;SDS011;65656;51.130;13.658;2023-04-10T12:01:35;11.82;;;10.32;;
76731;SDS011;65656;51.130;13.658;2023-04-10T12:05:45;11.15;;;9.90;;
76731;SDS011;65656;51.130;13.658;2023-04-10T12:09:54;12.45;;;10.57;;
76731;SDS011;65656;51.130;13.658;2023-04-10T12:13:56;16.40;;;14.88;;
76731;SDS011;65656;51.130;13.658;2023-04-10T12:17:57;16.02;;;14.38;;
76731;SDS011;65656;51.130;13.658;2023-04-10T12:22:00;13.25;;;11.52;;
76731;SDS011;65656;51.130;13.658;2023-04-10T12:26:06;16.08;;;14.57;;
76731;SDS011;65656;51.130;13.658;2023-04-10T12:30:09;12.55;;;10.75;;
76731;SDS011;65656;51.130;13.658;2023-04-10T12:34:11;13.93;;;12.73;;
76731;SDS011;65656;51.130;13.658;2023-04-10T12:42:38;14.98;;;13.48;;
76731;SDS011;65656;51.130;13.658;2023-04-10T12:46:41;11.93;;;10.70;;
76731;SDS011;65656;51.130;13.658;2023-04-10T12:50:46;13.02;;;11.80;;
76731;SDS011;65656;51.130;13.658;2023-04-10T12:54:49;10.10;;;9.05;;
76731;SDS011;65656;51.130;13.658;2023-04-10T12:59:01;10.95;;;9.85;;
76731;SDS011;65656;51.130;13.658;2023-04-10T13:03:06;10.70;;;9.68;;
76731;SDS011;65656;51.130;13.658;2023-04-10T13:07:08;8.85;;;8.02;;
76731;SDS011;65656;51.130;13.658;2023-04-10T13:11:10;13.82;;;12.73;;
76731;SDS011;65656;51.130;13.658;2023-04-10T13:15:12;8.05;;;7.05;;
76731;SDS011;65656;51.130;13.658;2023-04-10T13:19:13;8.30;;;7.60;;
76731;SDS011;65656;51.130;13.658;2023-04-10T13:23:15;14.40;;;13.45;;
76731;SDS011;65656;51.130;13.658;2023-04-10T13:27:17;9.05;;;8.25;;
76731;SDS011;65656;51.130;13.658;2023-04-10T13:31:19;8.10;;;6.72;;
76731;SDS011;65656;51.130;13.658;2023-04-10T13:35:20;7.45;;;6.07;;
76731;SDS011;65656;51.130;13.658;2023-04-10T13:39:22;7.00;;;6.22;;
76731;SDS011;65656;51.130;13.658;2023-04-10T13:43:25;8.25;;;7.45;;
76731;SDS011;65656;51.130;13.658;2023-04-10T13:47:26;10.02;;;9.13;;
76731;SDS011;65656;51.130;13.658;2023-04-10T13:51:27;8.13;;;6.55;;
76731;SDS011;65656;51.130;13.658;2023-04-10T13:55:29;7.20;;;6.50;;
76731;SDS011;65656;51.130;13.658;2023-04-10T13:59:32;7.07;;;6.38;;
76731;SDS011;65656;51.130;13.658;2023-04-10T14:03:33;7.45;;;6.63;;
76731;SDS011;65656;51.130;13.658;2023-04-10T14:07:35;7.72;;;7.03;;
76731;SDS011;65656;51.130;13.658;2023-04-10T14:11:36;6.28;;;5.68;;
76731;SDS011;65656;51.130;13.658;2023-04-10T14:15:39;8.15;;;6.97;;
76731;SDS011;65656;51.130;13.658;2023-04-10T14:19:40;10.02;;;9.13;;
76731;SDS011;65656;51.130;13.658;2023-04-10T14:23:42;6.40;;;5.65;;
76731;SDS011;65656;51.130;13.658;2023-04-10T14:27:43;9.65;;;8.75;;
76731;SDS011;65656;51.130;13.658;2023-04-10T14:31:46;7.68;;;6.95;;
76731;SDS011;65656;51.130;13.658;2023-04-10T14:35:58;7.00;;;6.30;;
76731;SDS011;65656;51.130;13.658;2023-04-10T14:39:59;7.20;;;6.30;;
76731;SDS011;65656;51.130;13.658;2023-04-10T14:44:01;6.47;;;5.85;;
76731;SDS011;65656;51.130;13.658;2023-04-10T14:48:04;7.53;;;6.80;;
76731;SDS011;65656;51.130;13.658;2023-04-10T14:52:06;6.97;;;5.78;;
76731;SDS011;65656;51.130;13.658;2023-04-10T14:56:10;12.10;;;11.05;;
76731;SDS011;65656;51.130;13.658;2023-04-10T15:00:12;8.13;;;7.40;;
76731;SDS011;65656;51.130;13.658;2023-04-10T15:04:15;8.15;;;6.10;;
76731;SDS011;65656;51.130;13.658;2023-04-10T15:08:17;12.95;;;11.95;;
76731;SDS011;65656;51.130;13.658;2023-04-10T15:12:18;6.60;;;6.00;;
76731;SDS011;65656;51.130;13.658;2023-04-10T15:16:20;7.43;;;6.47;;
76731;SDS011;65656;51.130;13.658;2023-04-10T15:20:22;8.15;;;6.95;;
76731;SDS011;65656;51.130;13.658;2023-04-10T15:24:24;7.40;;;6.63;;
76731;SDS011;65656;51.130;13.658;2023-04-10T15:28:25;9.15;;;8.35;;
76731;SDS011;65656;51.130;13.658;2023-04-10T15:32:28;8.95;;;8.00;;
76731;SDS011;65656;51.130;13.658;2023-04-10T15:36:30;8.25;;;7.43;;
76731;SDS011;65656;51.130;13.658;2023-04-10T15:40:32;8.60;;;7.80;;
76731;SDS011;65656;51.130;13.658;2023-04-10T15:44:33;9.77;;;8.80;;
76731;SDS011;65656;51.130;13.658;2023-04-10T15:48:35;9.95;;;8.90;;
76731;SDS011;65656;51.130;13.658;2023-04-10T15:52:38;9.32;;;8.43;;
76731;SDS011;65656;51.130;13.658;2023-04-10T15:56:39;8.90;;;7.93;;
76731;SDS011;65656;51.130;13.658;2023-04-10T16:00:41;9.65;;;8.77;;
76731;SDS011;65656;51.130;13.658;2023-04-10T16:04:42;9.77;;;8.77;;
76731;SDS011;65656;51.130;13.658;2023-04-10T16:08:45;11.98;;;10.73;;
76731;SDS011;65656;51.130;13.658;2023-04-10T16:12:46;11.70;;;10.80;;
76731;SDS011;65656;51.130;13.658;2023-04-10T16:16:48;9.73;;;8.77;;
76731;SDS011;65656;51.130;13.658;2023-04-10T16:20:50;8.60;;;6.88;;
76731;SDS011;65656;51.130;13.658;2023-04-10T16:24:54;9.63;;;8.73;;
76731;SDS011;65656;51.130;13.658;2023-04-10T16:28:56;8.93;;;7.43;;
76731;SDS011;65656;51.130;13.658;2023-04-10T16:32:57;8.65;;;7.75;;
76731;SDS011;65656;51.130;13.658;2023-04-10T16:36:59;8.63;;;7.82;;
76731;SDS011;65656;51.130;13.658;2023-04-10T16:41:02;9.88;;;8.93;;
76731;SDS011;65656;51.130;13.658;2023-04-10T16:45:04;10.50;;;9.50;;
76731;SDS011;65656;51.130;13.658;2023-04-10T16:49:06;8.80;;;7.13;;
76731;SDS011;65656;51.130;13.658;2023-04-10T16:53:08;8.40;;;7.50;;
76731;SDS011;65656;51.130;13.658;2023-04-10T16:57:11;9.25;;;8.45;;
76731;SDS011;65656;51.130;13.658;2023-04-10T17:01:13;10.48;;;9.45;;
76731;SDS011;65656;51.130;13.658;2023-04-10T17:05:16;10.02;;;9.02;;
76731;SDS011;65656;51.130;13.658;2023-04-10T17:09:18;9.48;;;8.52;;
76731;SDS011;65656;51.130;13.658;2023-04-10T17:13:21;10.70;;;9.68;;
76731;SDS011;65656;51.130;13.658;2023-04-10T17:17:25;9.63;;;8.68;;
76731;SDS011;65656;51.130;13.658;2023-04-10T17:21:26;12.88;;;11.70;;
76731;SDS011;65656;51.130;13.658;2023-04-10T17:25:28;21.90;;;20.40;;
76731;SDS011;65656;51.130;13.658;2023-04-10T17:29:32;12.18;;;10.13;;
76731;SDS011;65656;51.130;13.658;2023-04-10T17:33:35;10.82;;;9.82;;
76731;SDS011;65656;51.130;13.658;2023-04-10T17:37:37;12.85;;;11.65;;
76731;SDS011;65656;51.130;13.658;2023-04-10T17:41:38;9.10;;;8.23;;
76731;SDS011;65656;51.130;13.658;2023-04-10T17:45:41;10.07;;;9.15;;
76731;SDS011;65656;51.130;13.658;2023-04-10T17:49:42;9.75;;;8.80;;
76731;SDS011;65656;51.130;13.658;2023-04-10T17:53:44;8.35;;;7.50;;
76731;SDS011;65656;51.130;13.658;2023-04-10T17:57:45;10.32;;;7.75;;
76731;SDS011;65656;51.130;13.658;2023-04-10T18:01:48;17.02;;;15.57;;
76731;SDS011;65656;51.130;13.658;2023-04-10T18:05:50;11.15;;;10.25;;
76731;SDS011;65656;51.130;13.658;2023-04-10T18:09:51;22.85;;;21.33;;
76731;SDS011;65656;51.130;13.658;2023-04-10T18:13:53;9.65;;;8.40;;
76731;SDS011;65656;51.130;13.658;2023-04-10T18:17:56;8.80;;;7.90;;
76731;SDS011;65656;51.130;13.658;2023-04-10T18:21:57;8.30;;;7.47;;
76731;SDS011;65656;51.130;13.658;2023-04-10T18:25:58;10.20;;;9.30;;
76731;SDS011;65656;51.130;13.658;2023-04-10T18:30:00;10.80;;;7.38;;
76731;SDS011;65656;51.130;13.658;2023-04-10T18:34:03;7.22;;;6.40;;
76731;SDS011;65656;51.130;13.658;2023-04-10T18:38:08;10.60;;;9.65;;
76731;SDS011;65656;51.130;13.658;2023-04-10T18:42:10;8.65;;;7.85;;
76731;SDS011;65656;51.130;13.658;2023-04-10T18:46:11;10.02;;;9.07;;
76731;SDS011;65656;51.130;13.658;2023-04-10T18:50:15;10.95;;;9.93;;
76731;SDS011;65656;51.130;13.658;2023-04-10T18:54:16;22.17;;;20.67;;
76731;SDS011;65656;51.130;13.658;2023-04-10T18:58:18;10.93;;;9.85;;
76731;SDS011;65656;51.130;13.658;2023-04-10T19:02:20;13.15;;;12.02;;
76731;SDS011;65656;51.130;13.658;2023-04-10T19:06:23;10.77;;;9.77;;
76731;SDS011;65656;51.130;13.658;2023-04-10T19:10:24;10.48;;;9.48;;
76731;SDS011;65656;51.130;13.658;2023-04-10T19:14:26;10.50;;;8.00;;
76731;SDS011;65656;51.130;13.658;2023-04-10T19:18:27;11.85;;;10.68;;
76731;SDS011;65656;51.130;13.658;2023-04-10T19:22:30;10.85;;;9.10;;
76731;SDS011;65656;51.130;13.658;2023-04-10T19:26:31;12.07;;;10.88;;
76731;SDS011;65656;51.130;13.658;2023-04-10T19:30:33;11.13;;;10.02;;
76731;SDS011;65656;51.130;13.658;2023-04-10T19:34:34;19.92;;;18.40;;
76731;SDS011;65656;51.130;13.658;2023-04-10T19:38:37;23.00;;;21.33;;
76731;SDS011;65656;51.130;13.658;2023-04-10T19:42:39;13.75;;;12.38;;
76731;SDS011;65656;51.130;13.658;2023-04-10T19:46:40;12.48;;;9.68;;
76731;SDS011;65656;51.130;13.658;2023-04-10T19:50:42;12.25;;;10.63;;
76731;SDS011;65656;51.130;13.658;2023-04-10T19:54:44;11.45;;;10.25;;
76731;SDS011;65656;51.130;13.658;2023-04-10T19:58:46;14.63;;;13.32;;
76731;SDS011;65656;51.130;13.658;2023-04-10T20:02:47;13.40;;;11.60;;
76731;SDS011;65656;51.130;13.658;2023-04-10T20:06:49;13.23;;;11.95;;
76731;SDS011;65656;51.130;13.658;2023-04-10T20:10:52;13.98;;;12.65;;
76731;SDS011;65656;51.130;13.658;2023-04-10T20:14:57;20.00;;;18.30;;
76731;SDS011;65656;51.130;13.658;2023-04-10T20:18:59;14.90;;;13.48;;
76731;SDS011;65656;51.130;13.658;2023-04-10T20:23:00;17.88;;;16.13;;
76731;SDS011;65656;51.130;13.658;2023-04-10T20:27:03;12.35;;;10.48;;
76731;SDS011;65656;51.130;13.658;2023-04-10T20:31:06;13.35;;;12.05;;
76731;SDS011;65656;51.130;13.658;2023-04-10T20:35:08;12.05;;;10.80;;
76731;SDS011;65656;51.130;13.658;2023-04-10T20:39:09;12.98;;;9.73;;
76731;SDS011;65656;51.130;13.658;2023-04-10T20:43:12;14.77;;;13.43;;
76731;SDS011;65656;51.130;13.658;2023-04-10T20:47:14;13.05;;;11.57;;
76731;SDS011;65656;51.130;13.658;2023-04-10T20:51:15;15.30;;;13.77;;
76731;SDS011;65656;51.130;13.658;2023-04-10T20:55:17;15.65;;;14.15;;
76731;SDS011;65656;51.130;13.658;2023-04-10T20:59:20;23.02;;;21.17;;
76731;SDS011;65656;51.130;13.658;2023-04-10T21:03:21;10.55;;;9.13;;
76731;SDS011;65656;51.130;13.658;2023-04-10T21:07:23;15.00;;;13.23;;
76731;SDS011;65656;51.130;13.658;2023-04-10T21:11:24;13.98;;;12.65;;
76731;SDS011;65656;51.130;13.658;2023-04-10T21:15:27;13.45;;;12.15;;
76731;SDS011;65656;51.130;13.658;2023-04-10T21:19:29;21.67;;;19.88;;
76731;SDS011;65656;51.130;13.658;2023-04-10T21:23:30;13.57;;;12.20;;
76731;SDS011;65656;51.130;13.658;2023-04-10T21:27:31;22.75;;;21.27;;
76731;SDS011;65656;51.130;13.658;2023-04-10T21:31:34;15.90;;;14.32;;
76731;SDS011;65656;51.130;13.658;2023-04-10T21:35:36;16.13;;;14.70;;
76731;SDS011;65656;51.130;13.658;2023-04-10T21:39:38;12.40;;;11.15;;
76731;SDS011;65656;51.130;13.658;2023-04-10T21:43:39;13.68;;;12.40;;
76731;SDS011;65656;51.130;13.658;2023-04-10T21:47:42;11.60;;;10.50;;
76731;SDS011;65656;51.130;13.658;2023-04-10T21:51:43;14.90;;;13.60;;
76731;SDS011;65656;51.130;13.658;2023-04-10T21:55:45;14.25;;;13.02;;
76731;SDS011;65656;51.130;13.658;2023-04-10T21:59:46;14.23;;;12.80;;
76731;SDS011;65656;51.130;13.658;2023-04-10T22:03:49;12.20;;;10.77;;
76731;SDS011;65656;51.130;13.658;2023-04-10T22:07:50;14.43;;;10.40;;
76731;SDS011;65656;51.130;13.658;2023-04-10T22:11:52;12.18;;;10.93;;
76731;SDS011;65656;51.130;13.658;2023-04-10T22:15:53;13.70;;;12.30;;
76731;SDS011;65656;51.130;13.658;2023-04-10T22:19:56;16.23;;;14.85;;
76731;SDS011;65656;51.130;13.658;2023-04-10T22:23:57;16.25;;;13.05;;
76731;SDS011;65656;51.130;13.658;2023-04-10T22:27:59;11.27;;;9.05;;
76731;SDS011;65656;51.130;13.658;2023-04-10T22:32:00;11.52;;;10.43;;
76731;SDS011;65656;51.130;13.658;2023-04-10T22:36:03;11.07;;;9.95;;
76731;SDS011;65656;51.130;13.658;2023-04-10T22:40:06;11.57;;;9.13;;
76731;SDS011;65656;51.130;13.658;2023-04-10T22:44:08;11.57;;;10.38;;
76731;SDS011;65656;51.130;13.658;2023-04-10T22:48:09;12.40;;;11.27;;
76731;SDS011;65656;51.130;13.658;2023-04-10T22:52:12;11.68;;;10.63;;
76731;SDS011;65656;51.130;13.658;2023-04-10T22:56:14;12.70;;;11.40;;
76731;SDS011;65656;51.130;13.658;2023-04-10T23:00:15;11.80;;;10.65;;
76731;SDS011;65656;51.130;13.658;2023-04-10T23:04:17;10.02;;;8.27;;
76731;SDS011;65656;51.130;13.658;2023-04-10T23:08:20;10.80;;;9.38;;
76731;SDS011;65656;51.130;13.658;2023-04-10T23:12:21;9.68;;;8.52;;
76731;SDS011;65656;51.130;13.658;2023-04-10T23:16:22;10.98;;;9.88;;
76731;SDS011;65656;51.130;13.658;2023-04-10T23:20:24;9.18;;;7.50;;
76731;SDS011;65656;51.130;13.658;2023-04-10T23:24:27;11.43;;;9.40;;
76731;SDS011;65656;51.130;13.658;2023-04-10T23:28:28;21.45;;;19.98;;
76731;SDS011;65656;51.130;13.658;2023-04-10T23:32:30;11.75;;;10.65;;
76731;SDS011;65656;51.130;13.658;2023-04-10T23:36:31;11.50;;;10.40;;
76731;SDS011;65656;51.130;13.658;2023-04-10T23:40:34;9.68;;;8.10;;
76731;SDS011;65656;51.130;13.658;2023-04-10T23:44:35;9.40;;;6.20;;
76731;SDS011;65656;51.130;13.658;2023-04-10T23:48:37;11.07;;;9.00;;
76731;SDS011;65656;51.130;13.658;2023-04-10T23:52:38;11.85;;;10.63;;
76731;SDS011;65656;51.130;13.658;2023-04-10T23:56:41;7.93;;;6.25;;
